Historyczne dane pomiarowe

Dodano dane terminowe – wersja testowa.

Dane z okresu 1951-2019

Wersja bazy: 1.34 [2019-03-16, lista zmian], aktualizacja planowana na 2019-04-15

Dane meteo z obszaru Polski uzyskane na podstawie danych udostępnionych przez Instytut Meteorologii i Gospodarki Wodnej – Państwowy Instytut Badawczy.

 

Wybierz Datę:    

       

TemperaturaWilgotnośćWiatrCiśnienieOpadyŚniegCzas trwania zjawisk
 Stacja t tx tn tng RH VA  wxwx mslp ppp RRR   cm mm wxwxwxwxwxwxwx
1951-03-18 1.3 2.8 -0.3- 93.5- 7.0 12.7---- 2.3-- 95---------
1951-03-19 -2.2 0.8 -5.1- 85.8- 5.0 11.3---- 9.9-- 89---------
1951-03-20 -9.4 -0.3-14.3- 88.3- 5.7 6.7---- 9.8--101---------
1951-03-21-14.9-12.6-16.3- 90.3- 8.0 6.0---- 5.6--109---------
1951-03-22-10.0 -5.6-17.8- 37.5- 2.0 5.3---- 0.0--120---------
1951-03-23 -7.1 -4.8-10.0- 82.0- 8.0 18.7---- 0.0--114---------
1951-03-24 -2.1 0.9 -5.8- 81.8- 6.3 7.0---- 5.7--108---------
1951-03-25 -9.3 -4.1-10.6- 92.3- 8.0 5.7---- 34.0--111---------
1951-03-26-10.8 -9.2-12.6- 91.0- 8.0 7.3---- 12.2--147---------
1951-03-27 -6.8 -5.2-13.6- 71.8- 5.0 8.7---- 0.1--160---------
1951-03-28 -7.8 -4.9-10.6- 74.5- 6.0 8.0---- 2.3--155---------
1951-03-29 -8.0 -6.4-10.7- 93.3- 8.0 1.3---- 14.1--157---------
1951-03-30 -5.3 -3.6 -9.2- 89.8- 5.3 9.7---- 0.0--175---------
1951-03-31 -0.9 0.1 -5.2- 98.5- 7.7 12.0---- 9.1--169---------
1951-04-01 -1.1 1.0 -3.3- 98.0- 8.0 5.7---- 16.3--157---------
1951-04-02 -4.9 -2.7 -7.1- 93.3- 3.3 8.7---- 0.0--168---------
1951-04-03 -1.6 1.4 -5.3- 71.5- 3.0 3.7---- 1.1--165---------
1951-04-04 -1.8 0.8 -6.9- 82.8- 5.3 2.0---- 0.0--160---------
1951-04-05 -0.9 4.3 -2.9- 80.5- 2.7 2.7---- 0.8--156---------
1951-04-06 -3.4 -1.1 -6.7- 85.8- 4.3 3.3---- 0.0--147---------
1951-04-07 -1.3 1.6 -3.2- 64.0- 2.0 7.7---- 0.0--132---------
1951-04-08 -0.6 1.3 -3.6- 89.8- 3.7 12.7---- 0.1--124---------
1951-04-09 -4.1 0.0 -7.5- 87.8- 5.3 5.3---- 5.1--116---------
1951-04-10 -4.2 -1.0 -6.8- 88.8- 5.0 7.0---- 3.0--120---------
1951-04-11 -4.6 -2.5 -5.7- 74.8- 8.0 4.0---- 0.4--121---------
1951-04-12 -6.1 -3.6 -7.4- 94.5- 8.0 2.7---- 0.2--118---------
1951-04-13 -1.8 -0.1-10.0- 61.3- 0.7 1.3---- 0.0--115---------
1951-04-14 -4.3 -0.4 -5.3- 81.5- 7.7 5.3---- 16.1--109---------
1951-04-15 -9.5 -4.3-11.3- 86.5- 5.3 4.3---- 4.2--131---------
1951-04-16 -7.0 -3.7-11.8- 72.5- 1.7 7.3---- 0.0--135---------
137.3 ms

 

Źródłem pochodzenia danych jest Instytut Meteorologii i Gospodarki Wodnej – Państwowy Instytut Badawczy. Dane Instytutu Meteorologii i Gospodarki Wodnej – Państwowego Instytutu Badawczego zostały przetworzone.

Dane źródłowe można odnaleźć na stronie https://dane.imgw.pl